Terminal Aerodrome Forecast
Issued by NWS Grand Forks, ND

Home | Current Version | Previous Version | Text Only | Print | Product List | Glossary Off
Versions: 1 2 3 4 5 6 7 8 9 10 11 12 13 14 15

000
FTUS43 KFGF 102300
TAFGFK
TAF
KGFK 102320Z 1100/1124 16012KT P6SM SCT080 BKN250
     FM110600 20007KT P6SM SCT080
     FM111200 29010KT P6SM SCT250
     FM111500 31012KT P6SM SCT250=

USA.gov is the U.S. government's official web portal to all federal, state and local government web resources and services.